Time;durP1;ratioP1;P1;durP2;ratioP2;P2;SDS_P1;SDS_P2;PMS_P1;PMS_P2;Temp;Humidity;BMP_temperature;BMP_pressure;BME280_temperature;BME280_humidity;BME280_pressure;Samples;Min_cycle;Max_cycle;Signal;HPM_P1;HPM_P2
2021/12/25 00:00:20;;;;;;;4.40;2.70;;;;;;;-1.72;74.70;98815.17;126483;1312;106915;-77
2021/12/25 00:03:43;;;;;;;3.40;2.20;;;;;;;-1.70;74.99;98831.77;126443;1311;108785;-78
2021/12/25 00:06:49;;;;;;;3.70;2.00;;;;;;;-1.72;74.28;98842.44;126490;1310;108795;-78
2021/12/25 00:09:54;;;;;;;2.40;1.30;;;;;;;-1.77;74.18;98844.69;126607;1310;108853;-76
2021/12/25 00:12:59;;;;;;;3.30;1.60;;;;;;;-1.86;72.47;98860.82;126656;1311;107863;-76
2021/12/25 00:16:06;;;;;;;4.10;1.80;;;;;;;-1.93;72.94;98861.66;126785;1311;108775;-77
2021/12/25 00:19:11;;;;;;;3.60;1.80;;;;;;;-2.01;73.46;98872.98;126631;1311;108698;-76
2021/12/25 00:22:17;;;;;;;3.30;1.50;;;;;;;-2.02;73.92;98879.51;126672;1315;109757;-77
2021/12/25 00:25:23;;;;;;;2.90;1.40;;;;;;;-1.99;74.22;98892.38;126640;1310;107915;-76
2021/12/25 00:28:50;;;;;;;2.60;1.50;;;;;;;-1.95;74.21;98903.63;126629;1312;108784;-76
2021/12/25 00:32:10;;;;;;;4.60;2.00;;;;;;;-1.88;74.62;98908.05;126713;1312;107808;-80
2021/12/25 00:35:15;;;;;;;4.40;2.10;;;;;;;-1.88;74.31;98921.60;126685;1312;108881;-77
2021/12/25 00:38:21;;;;;;;3.90;2.00;;;;;;;-1.88;74.64;98929.61;126657;1312;108795;-77
2021/12/25 00:41:27;;;;;;;4.30;2.20;;;;;;;-1.95;73.83;98935.71;126586;1312;107880;-76
2021/12/25 00:44:33;;;;;;;2.70;1.80;;;;;;;-2.01;74.57;98939.70;126609;1312;108935;-80
2021/12/25 00:47:38;;;;;;;4.50;2.20;;;;;;;-2.01;74.39;98944.11;126453;1312;108820;-76
2021/12/25 00:50:44;;;;;;;3.30;1.80;;;;;;;-2.06;73.57;98948.64;126401;1312;108598;-76
2021/12/25 00:53:49;;;;;;;3.80;2.00;;;;;;;-2.07;74.08;98954.14;126655;1317;109316;-77
2021/12/25 00:56:55;;;;;;;3.50;1.60;;;;;;;-2.09;73.07;98970.45;126602;1310;108736;-77
2021/12/25 01:00:00;;;;;;;3.40;1.70;;;;;;;-2.25;71.99;98978.89;126567;1310;108821;-78
2021/12/25 01:03:06;;;;;;;4.00;1.40;;;;;;;-2.46;71.39;98992.42;126389;1316;108610;-77
2021/12/25 01:06:11;;;;;;;3.20;1.50;;;;;;;-2.65;70.97;98993.48;126063;1315;109680;-76
2021/12/25 01:09:17;;;;;;;2.40;1.10;;;;;;;-2.82;69.95;99006.12;126197;1313;107405;-78
2021/12/25 01:12:23;;;;;;;8.80;3.50;;;;;;;-2.99;69.90;99007.73;126580;1316;108819;-76
2021/12/25 01:15:38;;;;;;;3.50;1.40;;;;;;;-3.14;68.83;99019.45;126329;1315;108953;-76
2021/12/25 01:19:13;;;;;;;2.00;1.00;;;;;;;-3.27;70.07;99024.64;126648;1312;108954;-77
2021/12/25 01:23:01;;;;;;;6.20;2.70;;;;;;;-3.38;70.11;99038.84;126536;1312;108820;-76
2021/12/25 01:26:33;;;;;;;10.00;3.60;;;;;;;-3.49;71.05;99039.71;126480;1312;108908;-74
2021/12/25 01:29:46;;;;;;;18.30;7.80;;;;;;;-3.52;71.86;99048.07;126550;1312;108807;-76
2021/12/25 01:33:17;;;;;;;35.60;13.20;;;;;;;-3.58;71.46;99064.55;126637;1312;108732;-75
2021/12/25 01:36:41;;;;;;;9.10;3.90;;;;;;;-3.67;71.27;99074.33;126572;1312;108741;-75
2021/12/25 01:40:44;;;;;;;18.60;7.40;;;;;;;-3.69;71.15;99084.02;126508;1312;108089;-76
2021/12/25 01:47:57;;;;;;;10.20;4.40;;;;;;;-3.66;71.33;99106.77;125734;1317;106958;-74
2021/12/25 01:51:03;;;;;;;8.60;4.00;;;;;;;-3.65;71.32;99116.45;125628;1317;108924;-75
2021/12/25 01:54:08;;;;;;;7.70;3.60;;;;;;;-3.74;70.12;99121.83;126309;1312;108631;-74
2021/12/25 01:57:14;;;;;;;9.50;4.10;;;;;;;-3.96;69.42;99124.72;126436;1312;106597;-79
2021/12/25 02:00:24;;;;;;;15.70;8.90;;;;;;;-4.16;70.37;99132.61;126186;1312;108988;-77
2021/12/25 02:03:32;;;;;;;14.70;6.80;;;;;;;-4.21;71.38;99139.33;126585;1311;107929;-77
2021/12/25 02:06:38;;;;;;;19.30;7.90;;;;;;;-4.25;70.73;99149.45;126627;1312;109042;-77
2021/12/25 02:09:44;;;;;;;14.20;5.30;;;;;;;-4.30;71.37;99157.03;126211;1312;107816;-78
2021/12/25 02:12:50;;;;;;;27.60;9.40;;;;;;;-4.31;71.67;99167.85;126434;1310;108912;-78
2021/12/25 02:15:57;;;;;;;34.90;11.60;;;;;;;-4.38;70.70;99177.77;126243;1312;107968;-77
2021/12/25 02:19:09;;;;;;;40.40;15.80;;;;;;;-4.49;71.18;99173.88;126162;1311;233163;-78
2021/12/25 02:22:27;;;;;;;6.10;2.60;;;;;;;-4.54;71.37;99175.70;126382;1314;108794;-79
2021/12/25 02:25:35;;;;;;;4.40;2.50;;;;;;;-4.57;71.07;99189.42;126558;1310;108920;-78
2021/12/25 02:28:40;;;;;;;8.90;4.10;;;;;;;-4.66;70.55;99194.23;126545;1315;109766;-78
2021/12/25 02:31:46;;;;;;;5.50;1.80;;;;;;;-4.72;70.80;99203.26;126438;1311;109493;-78
2021/12/25 02:34:52;;;;;;;4.70;1.90;;;;;;;-4.72;70.69;99213.15;126613;1312;108791;-78
2021/12/25 02:37:58;;;;;;;7.10;3.40;;;;;;;-4.77;70.53;99219.11;126605;1312;107790;-74
2021/12/25 02:41:06;;;;;;;4.30;1.90;;;;;;;-4.83;69.88;99224.65;126527;1312;108892;-75
2021/12/25 02:44:11;;;;;;;4.70;2.10;;;;;;;-4.93;70.75;99235.38;126310;1311;108858;-75
2021/12/25 02:47:29;;;;;;;4.40;2.00;;;;;;;-5.01;70.43;99241.04;126333;1311;107793;-75
2021/12/25 02:50:36;;;;;;;3.50;1.80;;;;;;;-5.13;70.33;99247.88;126261;1311;108753;-73
2021/12/25 02:53:42;;;;;;;4.60;1.90;;;;;;;-5.25;70.38;99252.84;126504;1314;108973;-77
2021/12/25 02:56:48;;;;;;;4.70;1.80;;;;;;;-5.35;70.86;99260.77;126484;1314;108902;-74
2021/12/25 02:59:53;;;;;;;5.50;2.00;;;;;;;-5.43;70.90;99264.98;126661;1312;108737;-74
2021/12/25 03:03:01;;;;;;;4.40;2.00;;;;;;;-5.51;70.39;99272.65;126495;1316;108739;-74
2021/12/25 03:06:08;;;;;;;5.40;2.10;;;;;;;-5.59;70.52;99279.63;126625;1317;107346;-74
2021/12/25 03:09:13;;;;;;;4.60;1.70;;;;;;;-5.62;70.53;99282.73;126641;1311;108816;-77
2021/12/25 03:12:28;;;;;;;3.90;1.80;;;;;;;-5.71;70.58;99285.42;126748;1312;108917;-77
2021/12/25 03:15:45;;;;;;;4.70;1.50;;;;;;;-5.73;70.61;99287.77;126580;1312;109101;-73
2021/12/25 03:18:53;;;;;;;4.30;1.80;;;;;;;-5.69;70.75;99290.34;126747;1310;109012;-74
2021/12/25 03:21:59;;;;;;;3.90;1.60;;;;;;;-5.64;70.47;99293.40;126792;1312;108905;-73
2021/12/25 03:25:07;;;;;;;3.90;1.70;;;;;;;-5.60;70.72;99297.71;126552;1312;109002;-77
2021/12/25 03:28:14;;;;;;;3.90;1.90;;;;;;;-5.56;70.07;99303.09;126730;1312;109703;-79
2021/12/25 03:31:21;;;;;;;3.50;1.70;;;;;;;-5.58;70.67;99308.20;126694;1312;108899;-75
2021/12/25 03:34:27;;;;;;;5.00;2.20;;;;;;;-5.57;70.45;99309.53;126429;1314;106504;-75
2021/12/25 03:37:32;;;;;;;3.80;1.50;;;;;;;-5.64;70.30;99320.59;126557;1310;108826;-76
2021/12/25 03:40:38;;;;;;;4.30;1.50;;;;;;;-5.70;70.27;99319.87;126422;1312;108750;-75
2021/12/25 03:43:44;;;;;;;30.20;11.80;;;;;;;-5.76;70.38;99329.98;126720;1310;108962;-78
2021/12/25 03:46:50;;;;;;;39.80;17.70;;;;;;;-5.87;70.15;99330.02;126442;1318;108853;-76
2021/12/25 03:53:37;;;;;;;7.10;3.60;;;;;;;-6.01;70.37;99340.92;126281;1312;108759;-79
2021/12/25 04:00:07;;;;;;;11.10;5.40;;;;;;;-6.12;70.53;99350.73;126567;1311;107915;-79
2021/12/25 04:03:28;;;;;;;9.50;4.20;;;;;;;-6.14;70.88;99356.88;126299;1312;109074;-82
2021/12/25 04:06:33;;;;;;;;;;;;;;;-6.14;70.68;99356.73;126540;1312;109014;-74
2021/12/25 04:09:40;;;;;;;10.40;4.20;;;;;;;-6.20;70.43;99357.55;126540;1311;105595;-76
2021/12/25 04:12:46;;;;;;;9.50;4.00;;;;;;;-6.28;70.54;99359.99;126297;1311;108756;-77
2021/12/25 04:15:51;;;;;;;3.20;1.60;;;;;;;-6.34;70.55;99367.68;126483;1315;108850;-77
2021/12/25 04:18:57;;;;;;;21.30;8.70;;;;;;;-6.40;70.27;99375.38;126624;1315;107901;-76
2021/12/25 04:22:07;;;;;;;23.30;8.10;;;;;;;-6.35;70.78;99377.56;126433;1312;108851;-79
2021/12/25 04:25:19;;;;;;;;;;;;;;;-6.29;70.56;99381.99;126474;1316;107759;-75
2021/12/25 04:28:36;;;;;;;4.70;2.10;;;;;;;-6.21;70.50;99382.83;126458;1312;108876;-76
2021/12/25 04:32:06;;;;;;;19.60;7.70;;;;;;;-6.16;70.66;99383.46;126523;1315;108725;-74
2021/12/25 05:02:59;;;;;;;4.80;1.90;;;;;;;-6.61;70.98;99423.20;126638;1315;108862;-74
2021/12/25 05:06:40;;;;;;;4.40;2.10;;;;;;;-6.71;71.54;99427.57;125767;1316;108849;-75
2021/12/25 05:09:45;;;;;;;7.00;2.30;;;;;;;-6.80;71.79;99429.52;126639;1311;107438;-74
2021/12/25 05:12:51;;;;;;;5.60;1.80;;;;;;;-6.84;71.66;99430.52;126432;1312;108823;-76
2021/12/25 05:15:57;;;;;;;4.90;2.40;;;;;;;-6.79;71.78;99432.41;126503;1317;108994;-75
2021/12/25 05:19:03;;;;;;;5.10;2.30;;;;;;;-6.69;71.54;99433.55;126736;1312;109067;-74
2021/12/25 05:22:10;;;;;;;5.00;2.00;;;;;;;-6.62;71.43;99432.57;126706;1315;108927;-72
2021/12/25 05:25:16;;;;;;;4.30;1.80;;;;;;;-6.59;71.36;99438.34;126350;1314;109023;-73
2021/12/25 05:28:39;;;;;;;4.20;1.80;;;;;;;-6.51;71.61;99441.95;126464;1312;107703;-72
2021/12/25 05:31:45;;;;;;;8.00;1.70;;;;;;;-6.44;71.29;99449.27;126369;1312;108785;-73
2021/12/25 05:35:14;;;;;;;4.70;1.70;;;;;;;-6.40;71.28;99452.92;126214;1318;109021;-73
2021/12/25 05:38:50;;;;;;;5.00;2.10;;;;;;;-6.40;71.44;99460.34;126587;1312;108859;-74
2021/12/25 05:42:07;;;;;;;9.90;3.40;;;;;;;-6.50;70.99;99466.30;126669;1315;108746;-74
2021/12/25 05:45:13;;;;;;;14.90;4.70;;;;;;;-6.58;71.10;99471.30;126655;1310;109062;-75
2021/12/25 05:48:45;;;;;;;7.30;2.70;;;;;;;-6.68;71.35;99475.38;126513;1312;108904;-74
2021/12/25 05:52:20;;;;;;;11.20;4.50;;;;;;;-6.71;71.52;99480.17;126458;1312;109213;-74
2021/12/25 05:55:44;;;;;;;8.30;3.10;;;;;;;-6.71;71.53;99486.55;126649;1311;109443;-74
2021/12/25 05:59:11;;;;;;;8.30;3.90;;;;;;;-6.72;71.28;99490.41;126642;1315;109023;-75
2021/12/25 06:02:49;;;;;;;5.40;2.20;;;;;;;-6.76;71.41;99494.53;126084;1316;109090;-74
2021/12/25 06:06:00;;;;;;;5.80;1.80;;;;;;;-6.82;71.39;99493.23;126234;1311;108801;-74
2021/12/25 06:09:08;;;;;;;9.90;4.50;;;;;;;-6.82;71.53;99491.31;126320;1312;108773;-74
2021/12/25 06:12:14;;;;;;;4.90;2.60;;;;;;;-6.73;71.70;99494.59;126624;1312;107298;-72
2021/12/25 06:15:21;;;;;;;7.60;3.30;;;;;;;-6.63;71.25;99497.81;126613;1315;108925;-73
2021/12/25 06:18:34;;;;;;;6.80;3.10;;;;;;;-6.46;71.63;99501.60;126705;1317;107853;-75
2021/12/25 06:21:52;;;;;;;12.30;7.40;;;;;;;-6.26;71.44;99506.33;126415;1311;106602;-74
2021/12/25 06:25:11;;;;;;;4.90;2.40;;;;;;;-6.12;71.32;99507.41;126343;1314;108916;-75
2021/12/25 06:28:46;;;;;;;7.70;2.80;;;;;;;-6.06;71.21;99511.15;126006;1318;108855;-75
2021/12/25 06:32:14;;;;;;;6.40;3.20;;;;;;;-5.99;71.31;99516.89;126342;1311;108916;-73
2021/12/25 06:35:34;;;;;;;6.00;2.80;;;;;;;-5.95;70.71;99517.91;126500;1318;107865;-73
2021/12/25 06:38:55;;;;;;;6.90;2.50;;;;;;;-5.98;71.02;99522.59;126408;1315;108977;-75
2021/12/25 06:42:19;;;;;;;6.90;3.20;;;;;;;-6.04;71.33;99531.67;126619;1311;108073;-72
2021/12/25 06:45:25;;;;;;;5.00;2.60;;;;;;;-6.07;70.98;99533.70;126274;1317;108799;-73
2021/12/25 06:48:31;;;;;;;6.00;2.20;;;;;;;-6.07;71.34;99536.16;126376;1312;107802;-75
2021/12/25 06:51:50;;;;;;;5.10;2.40;;;;;;;-6.13;70.97;99536.21;126373;1315;108774;-76
2021/12/25 06:55:16;;;;;;;6.60;2.90;;;;;;;-6.24;70.66;99540.67;126280;1317;108730;-76
2021/12/25 06:58:38;;;;;;;8.40;2.80;;;;;;;-6.33;70.85;99545.36;126650;1311;108883;-75
2021/12/25 07:01:44;;;;;;;7.00;3.00;;;;;;;-6.46;71.26;99551.77;126660;1317;109243;-75
2021/12/25 07:05:11;;;;;;;116.10;38.10;;;;;;;-6.50;70.77;99552.82;126442;1316;108926;-78
2021/12/25 07:08:42;;;;;;;16.80;8.20;;;;;;;-6.58;71.22;99563.19;126424;1315;107608;-76
2021/12/25 07:12:13;;;;;;;14.50;5.70;;;;;;;-6.68;71.16;99567.20;126314;1315;108798;-76
2021/12/25 07:15:30;;;;;;;12.90;5.00;;;;;;;-6.74;71.39;99570.58;126505;1312;108946;-77
2021/12/25 07:18:48;;;;;;;24.20;12.70;;;;;;;-6.77;71.66;99574.63;126439;1312;108772;-76
2021/12/25 07:22:18;;;;;;;19.10;9.60;;;;;;;-6.72;71.80;99578.97;126528;1312;108911;-78
2021/12/25 07:25:33;;;;;;;12.20;5.60;;;;;;;-6.61;71.53;99583.73;126304;1315;108976;-73
2021/12/25 07:28:56;;;;;;;8.60;4.00;;;;;;;-6.46;71.47;99585.16;126258;1312;108849;-75
2021/12/25 07:32:02;;;;;;;34.60;14.90;;;;;;;-6.28;71.52;99583.25;126669;1311;107549;-75
2021/12/25 07:35:08;;;;;;;58.90;25.80;;;;;;;-6.09;71.26;99586.23;126515;1317;108942;-79
2021/12/25 07:38:15;;;;;;;80.10;33.70;;;;;;;-5.89;71.56;99593.54;126281;1316;108736;-76
2021/12/25 07:41:20;;;;;;;47.10;23.10;;;;;;;-5.79;70.95;99596.22;126671;1311;108817;-73
2021/12/25 07:44:25;;;;;;;40.10;18.80;;;;;;;-5.70;70.88;99600.00;126369;1318;108954;-73
2021/12/25 07:47:33;;;;;;;47.00;21.60;;;;;;;-5.66;71.05;99601.04;126392;1312;109009;-75
2021/12/25 07:50:40;;;;;;;43.60;20.70;;;;;;;-5.59;70.81;99605.91;126430;1312;107012;-78
2021/12/25 07:53:46;;;;;;;23.30;10.40;;;;;;;-5.53;71.12;99610.84;126550;1315;108990;-79
2021/12/25 07:56:51;;;;;;;52.80;21.40;;;;;;;-5.48;70.95;99611.52;126599;1315;107215;-80
2021/12/25 07:59:57;;;;;;;22.20;9.90;;;;;;;-5.45;71.18;99613.10;126660;1315;107493;-77
2021/12/25 08:03:03;;;;;;;350.90;94.00;;;;;;;-5.46;70.88;99621.09;126544;1318;108846;-80
2021/12/25 08:06:08;;;;;;;344.60;106.10;;;;;;;-5.51;70.63;99622.56;126674;1318;108765;-81
2021/12/25 08:09:17;;;;;;;193.80;62.50;;;;;;;-5.50;71.11;99625.98;126623;1315;105976;-85
2021/12/25 08:12:22;;;;;;;131.50;45.90;;;;;;;-5.50;70.99;99627.00;126672;1318;107893;-81
2021/12/25 08:15:30;;;;;;;49.90;21.70;;;;;;;-5.50;71.12;99627.68;126565;1315;108887;-79
2021/12/25 08:18:36;;;;;;;29.30;14.00;;;;;;;-5.49;71.05;99631.85;127087;1318;108884;-80
2021/12/25 08:22:01;;;;;;;18.50;8.80;;;;;;;-5.47;71.15;99631.24;126552;1312;108830;-78
2021/12/25 08:25:26;;;;;;;19.50;9.60;;;;;;;-5.41;71.23;99628.34;126554;1317;109036;-78
2021/12/25 08:29:07;;;;;;;14.80;7.20;;;;;;;-5.35;71.41;99633.78;125833;1315;107771;-76
2021/12/25 08:32:31;;;;;;;20.40;9.90;;;;;;;-5.31;71.43;99642.98;126642;1317;108913;-78
2021/12/25 08:35:56;;;;;;;16.30;7.60;;;;;;;-5.25;71.29;99645.34;126608;1316;109628;-81
2021/12/25 08:39:02;;;;;;;12.00;5.10;;;;;;;-5.22;71.44;99650.55;126365;1317;108868;-79
2021/12/25 08:42:10;;;;;;;12.20;5.60;;;;;;;-5.18;71.58;99655.22;126375;1317;107963;-79
2021/12/25 08:45:40;;;;;;;15.60;6.00;;;;;;;-5.16;71.79;99657.73;126456;1311;108877;-78
2021/12/25 08:48:46;;;;;;;25.50;12.20;;;;;;;-5.11;71.34;99654.58;126355;1310;109018;-78
2021/12/25 08:51:52;;;;;;;14.00;4.90;;;;;;;-5.02;71.56;99659.91;126553;1318;108747;-78
2021/12/25 08:54:58;;;;;;;13.40;5.80;;;;;;;-5.01;71.30;99659.51;126690;1317;108983;-78
2021/12/25 08:58:03;;;;;;;14.20;5.60;;;;;;;-5.03;71.41;99661.33;126569;1317;107421;-78
2021/12/25 09:01:11;;;;;;;14.40;5.10;;;;;;;-5.06;71.37;99659.58;126313;1317;107819;-78
2021/12/25 09:04:17;;;;;;;11.70;4.70;;;;;;;-5.08;71.38;99658.44;126376;1318;108957;-79
2021/12/25 09:07:23;;;;;;;13.30;4.60;;;;;;;-5.14;71.28;99660.26;126643;1316;108924;-82
2021/12/25 09:10:29;;;;;;;83.80;25.20;;;;;;;-5.10;71.50;99663.71;126723;1317;108866;-78
2021/12/25 09:13:34;;;;;;;22.90;9.00;;;;;;;-4.98;71.77;99666.49;126637;1317;108889;-79
2021/12/25 09:16:40;;;;;;;62.00;26.70;;;;;;;-4.87;71.55;99671.55;126694;1318;107638;-79
2021/12/25 09:19:45;;;;;;;63.20;30.90;;;;;;;-4.72;71.22;99676.94;126679;1317;108527;-78
2021/12/25 09:22:51;;;;;;;48.10;22.20;;;;;;;-4.59;71.26;99671.98;126697;1317;106849;-79
2021/12/25 09:25:56;;;;;;;51.60;23.80;;;;;;;-4.50;71.32;99678.02;126765;1311;108894;-78
2021/12/25 09:29:02;;;;;;;40.10;19.30;;;;;;;-4.45;70.91;99677.37;126565;1318;107888;-79
2021/12/25 09:32:08;;;;;;;20.00;9.30;;;;;;;-4.44;70.94;99679.77;126629;1315;108615;-77
2021/12/25 09:35:14;;;;;;;17.20;7.60;;;;;;;-4.43;70.93;99680.44;126705;1317;108788;-80
2021/12/25 09:38:20;;;;;;;18.20;7.30;;;;;;;-4.47;70.94;99682.89;126404;1317;108777;-78
2021/12/25 09:41:26;;;;;;;15.90;6.70;;;;;;;-4.46;71.16;99679.22;126623;1317;108793;-79
2021/12/25 09:44:31;;;;;;;18.30;8.10;;;;;;;-4.44;71.05;99679.45;126585;1316;108899;-79
2021/12/25 09:47:37;;;;;;;19.30;7.90;;;;;;;-4.39;71.34;99672.27;126686;1312;108996;-80
2021/12/25 09:50:43;;;;;;;20.90;9.90;;;;;;;-4.35;70.91;99675.37;126565;1317;108869;-82
2021/12/25 09:53:59;;;;;;;18.40;8.00;;;;;;;-4.33;70.97;99676.83;126708;1316;108771;-78
2021/12/25 09:57:05;;;;;;;25.40;10.80;;;;;;;-4.30;70.92;99677.94;126529;1317;108959;-78
2021/12/25 10:00:16;;;;;;;23.50;12.40;;;;;;;-4.27;71.32;99682.65;126448;1317;109069;-79
2021/12/25 10:03:23;;;;;;;17.50;8.20;;;;;;;-4.21;70.92;99683.73;126606;1311;108737;-79
2021/12/25 10:06:34;;;;;;;37.00;19.00;;;;;;;-4.20;70.89;99681.63;126432;1318;106628;-79
2021/12/25 10:09:40;;;;;;;217.80;66.30;;;;;;;-4.19;71.09;99685.73;126386;1317;108796;-80
2021/12/25 10:12:49;;;;;;;206.00;68.30;;;;;;;-4.13;71.30;99687.18;126532;1317;108510;-79
2021/12/25 10:15:56;;;;;;;227.20;72.30;;;;;;;-4.07;70.80;99683.61;126307;1317;108808;-79
2021/12/25 10:19:17;;;;;;;69.40;24.00;;;;;;;-4.12;70.36;99685.73;126080;1314;405630;-79
2021/12/25 10:22:22;;;;;;;122.00;38.80;;;;;;;-4.17;70.67;99688.93;126404;1318;108646;-80
2021/12/25 10:25:32;;;;;;;20.90;9.40;;;;;;;-4.16;70.04;99688.70;126375;1311;108925;-78
2021/12/25 10:28:41;;;;;;;69.70;24.50;;;;;;;-4.22;70.20;99695.08;126494;1317;108745;-79
2021/12/25 10:31:46;;;;;;;109.30;39.80;;;;;;;-4.22;70.94;99695.27;126335;1316;108547;-79
2021/12/25 10:34:53;;;;;;;87.40;31.10;;;;;;;-4.19;70.34;99704.32;126389;1312;107880;-78
2021/12/25 10:38:10;;;;;;;18.20;6.90;;;;;;;-4.22;70.36;99710.02;126393;1310;108899;-81
2021/12/25 10:41:22;;;;;;;34.70;15.50;;;;;;;-4.24;70.25;99711.34;126353;1317;107628;-81
2021/12/25 10:44:29;;;;;;;173.20;58.00;;;;;;;-4.18;70.52;99704.60;126336;1315;108947;-80
2021/12/25 10:47:34;;;;;;;47.90;20.60;;;;;;;-4.05;70.85;99706.24;126442;1312;107863;-81
2021/12/25 10:50:43;;;;;;;87.50;33.60;;;;;;;-3.92;70.43;99706.15;126473;1311;108776;-79
2021/12/25 10:53:53;;;;;;;30.40;12.20;;;;;;;-3.89;70.26;99708.60;126457;1315;108949;-79
2021/12/25 10:56:58;;;;;;;23.70;9.60;;;;;;;-3.90;70.23;99709.18;126581;1318;108846;-79
2021/12/25 11:00:07;;;;;;;35.50;14.40;;;;;;;-3.99;69.48;99709.96;126464;1310;108791;-81
2021/12/25 11:03:12;;;;;;;34.50;15.30;;;;;;;-4.04;70.19;99709.33;126478;1311;106852;-78
2021/12/25 11:06:19;;;;;;;88.40;32.70;;;;;;;-4.00;70.32;99706.49;126492;1317;107676;-78
2021/12/25 11:09:25;;;;;;;101.80;38.50;;;;;;;-3.94;70.55;99704.45;126427;1310;107680;-80
2021/12/25 11:12:31;;;;;;;72.80;32.90;;;;;;;-3.84;70.55;99708.88;126395;1313;108928;-79
2021/12/25 11:15:37;;;;;;;31.80;16.90;;;;;;;-3.76;70.63;99707.45;126337;1318;108782;-79
2021/12/25 11:19:03;;;;;;;15.40;7.70;;;;;;;-3.67;70.28;99711.16;126291;1311;107738;-79
2021/12/25 11:22:09;;;;;;;14.30;5.30;;;;;;;-3.65;70.01;99713.87;126385;1310;109213;-77
2021/12/25 11:25:15;;;;;;;14.20;5.90;;;;;;;-3.69;70.04;99714.92;126442;1311;109098;-80
2021/12/25 11:28:21;;;;;;;12.10;5.40;;;;;;;-3.66;69.83;99720.83;126459;1315;109747;-79
2021/12/25 11:31:26;;;;;;;13.10;5.30;;;;;;;-3.68;69.42;99714.50;126480;1315;108905;-80
2021/12/25 11:34:32;;;;;;;12.20;4.80;;;;;;;-3.68;69.51;99713.13;126436;1317;108942;-79
2021/12/25 11:37:38;;;;;;;9.50;4.30;;;;;;;-3.66;69.70;99704.83;126406;1310;108996;-80
2021/12/25 11:40:50;;;;;;;10.60;4.60;;;;;;;-3.62;69.83;99704.67;126422;1311;108784;-79
2021/12/25 11:43:57;;;;;;;12.80;5.10;;;;;;;-3.63;69.34;99698.43;126433;1311;109233;-79
2021/12/25 11:47:04;;;;;;;13.30;5.70;;;;;;;-3.63;69.94;99697.94;126448;1310;108815;-79
2021/12/25 11:50:12;;;;;;;12.60;5.40;;;;;;;-3.59;69.09;99702.04;126362;1310;108725;-80
2021/12/25 11:53:26;;;;;;;14.10;5.50;;;;;;;-3.62;69.35;99699.64;126524;1310;107667;-80
2021/12/25 11:56:37;;;;;;;14.00;5.50;;;;;;;-3.59;69.50;99698.27;126450;1311;108373;-80
2021/12/25 11:59:48;;;;;;;86.40;37.00;;;;;;;-3.56;69.13;99697.39;126401;1312;108725;-78
2021/12/25 12:02:54;;;;;;;22.50;9.80;;;;;;;-3.58;68.46;99701.17;126362;1316;108826;-81
2021/12/25 12:05:59;;;;;;;37.90;16.30;;;;;;;-3.67;68.92;99696.92;126409;1315;108898;-79
2021/12/25 12:09:09;;;;;;;26.10;11.90;;;;;;;-3.67;69.53;99695.36;126403;1314;108810;-78
2021/12/25 12:12:47;;;;;;;25.70;10.00;;;;;;;-3.69;68.62;99695.60;126422;1312;108903;-79
2021/12/25 12:16:12;;;;;;;31.90;14.70;;;;;;;-3.72;69.05;99698.75;126481;1312;108760;-79
2021/12/25 12:19:51;;;;;;;41.00;18.10;;;;;;;-3.77;68.61;99699.14;126410;1311;109018;-79
2021/12/25 12:23:16;;;;;;;19.20;8.80;;;;;;;-3.80;68.72;99695.09;126598;1311;108841;-79
2021/12/25 12:26:51;;;;;;;20.80;8.60;;;;;;;-3.77;68.94;99703.15;126414;1312;108478;-78
2021/12/25 12:29:57;;;;;;;12.30;5.50;;;;;;;-3.74;69.15;99696.38;126347;1317;108943;-81
2021/12/25 12:33:23;;;;;;;14.80;7.50;;;;;;;-3.63;69.00;99688.20;126379;1310;106982;-79
2021/12/25 12:36:30;;;;;;;9.90;4.50;;;;;;;-3.45;69.19;99692.87;126315;1312;110379;-79
2021/12/25 12:39:35;;;;;;;13.30;6.20;;;;;;;-3.31;69.15;99694.56;126357;1315;108614;-80
2021/12/25 12:42:55;;;;;;;14.60;6.60;;;;;;;-3.21;68.94;99693.36;127072;1315;108817;-79
2021/12/25 12:46:00;;;;;;;13.10;4.50;;;;;;;-3.27;67.93;99699.42;126351;1311;108006;-79
2021/12/25 12:49:08;;;;;;;13.60;6.10;;;;;;;-3.39;67.69;99705.10;126328;1312;108960;-79
2021/12/25 12:52:21;;;;;;;14.50;6.80;;;;;;;-3.45;68.20;99709.74;126397;1312;108886;-80
2021/12/25 12:55:30;;;;;;;22.20;9.40;;;;;;;-3.52;67.77;99711.29;126408;1310;108904;-80
2021/12/25 12:58:35;;;;;;;63.40;27.30;;;;;;;-3.59;68.74;99712.13;126469;1312;108856;-79
2021/12/25 13:01:41;;;;;;;38.30;17.40;;;;;;;-3.56;68.78;99715.13;126406;1311;107772;-79
2021/12/25 13:04:50;;;;;;;18.50;7.90;;;;;;;-3.59;67.78;99724.33;126332;1311;108759;-79
2021/12/25 13:07:57;;;;;;;22.20;9.70;;;;;;;-3.69;68.48;99724.66;126514;1311;107851;-80
2021/12/25 13:11:14;;;;;;;19.70;9.20;;;;;;;-3.73;68.81;99722.76;126471;1312;108819;-80
2021/12/25 13:14:20;;;;;;;15.00;7.10;;;;;;;-3.70;68.99;99725.37;126363;1311;108832;-79
2021/12/25 13:17:25;;;;;;;15.50;6.20;;;;;;;-3.71;68.58;99726.65;126339;1310;106840;-79
2021/12/25 13:20:45;;;;;;;16.30;6.80;;;;;;;-3.70;68.82;99734.76;126318;1312;108796;-80
2021/12/25 13:23:54;;;;;;;17.10;7.70;;;;;;;-3.71;68.79;99738.66;126457;1312;108784;-78
2021/12/25 13:27:00;;;;;;;14.90;6.80;;;;;;;-3.73;69.08;99743.45;126414;1310;109352;-80
2021/12/25 13:30:16;;;;;;;33.10;14.00;;;;;;;-3.76;68.57;99748.77;126347;1311;108745;-79
2021/12/25 13:33:25;;;;;;;22.10;10.10;;;;;;;-3.78;69.04;99754.80;126324;1315;108939;-80
2021/12/25 13:36:34;;;;;;;23.70;10.70;;;;;;;-3.80;68.91;99757.88;126358;1312;108647;-80
2021/12/25 13:39:41;;;;;;;21.70;9.30;;;;;;;-3.82;68.99;99757.77;126253;1312;108523;-81
2021/12/25 13:42:47;;;;;;;15.70;6.60;;;;;;;-3.88;68.84;99762.06;126381;1311;108974;-79
2021/12/25 13:45:58;;;;;;;20.50;10.40;;;;;;;-3.88;69.19;99763.98;126413;1312;108749;-79
2021/12/25 13:49:04;;;;;;;22.40;9.80;;;;;;;-3.89;69.04;99767.89;126452;1311;107275;-80
2021/12/25 13:52:12;;;;;;;24.40;11.10;;;;;;;-3.93;69.00;99769.58;126432;1315;109199;-80
2021/12/25 13:55:20;;;;;;;26.10;13.20;;;;;;;-3.94;69.30;99772.77;126506;1310;107997;-80
2021/12/25 13:58:29;;;;;;;26.20;13.90;;;;;;;-3.95;69.21;99775.27;126486;1311;108839;-79
2021/12/25 14:01:34;;;;;;;47.30;21.70;;;;;;;-3.99;69.05;99781.16;126394;1314;108984;-79
2021/12/25 14:04:42;;;;;;;176.10;69.90;;;;;;;-4.05;69.05;99785.46;126494;1312;107514;-80
2021/12/25 14:07:48;;;;;;;237.40;92.20;;;;;;;-4.08;69.39;99790.28;126412;1312;108686;-80
2021/12/25 14:10:59;;;;;;;77.20;32.30;;;;;;;-4.09;69.23;99795.73;126343;1311;108767;-80
2021/12/25 14:14:08;;;;;;;44.30;18.40;;;;;;;-4.15;69.26;99794.59;126400;1311;108984;-80
2021/12/25 14:17:15;;;;;;;39.70;14.10;;;;;;;-4.15;69.30;99794.11;126453;1311;108746;-80
2021/12/25 14:20:24;;;;;;;90.60;30.30;;;;;;;-4.13;69.34;99793.64;126437;1316;108818;-79
2021/12/25 14:23:29;;;;;;;105.60;40.20;;;;;;;-4.08;69.19;99801.04;126536;1312;108964;-80
2021/12/25 14:26:35;;;;;;;107.30;42.70;;;;;;;-4.03;69.42;99800.30;126375;1314;108803;-79
2021/12/25 14:29:41;;;;;;;257.70;90.90;;;;;;;-4.00;69.25;99803.10;126263;1315;108890;-80
2021/12/25 14:32:51;;;;;;;314.20;116.70;;;;;;;-3.99;69.18;99804.98;126361;1312;108729;-79
2021/12/25 14:35:57;;;;;;;375.60;167.90;;;;;;;-4.00;69.07;99807.77;126362;1311;108786;-82
2021/12/25 14:39:03;;;;;;;186.30;86.50;;;;;;;-4.03;69.22;99815.95;126446;1311;109130;-78
2021/12/25 14:42:09;;;;;;;113.30;55.30;;;;;;;-4.08;69.19;99815.81;126367;1311;107921;-79
2021/12/25 14:45:16;;;;;;;96.40;50.20;;;;;;;-4.14;69.23;99815.61;126311;1311;108990;-80
2021/12/25 14:48:29;;;;;;;105.40;52.90;;;;;;;-4.22;69.30;99816.12;126415;1315;108829;-80
2021/12/25 14:51:38;;;;;;;110.90;44.30;;;;;;;-4.31;69.12;99815.14;126453;1311;107745;-79
2021/12/25 14:54:44;;;;;;;48.50;23.30;;;;;;;-4.39;69.08;99818.80;126416;1311;108878;-80
2021/12/25 14:57:50;;;;;;;58.60;30.20;;;;;;;-4.46;69.11;99819.11;126346;1310;108822;-79
2021/12/25 15:01:09;;;;;;;28.30;12.70;;;;;;;-4.51;69.09;99816.04;126277;1310;109043;-80
2021/12/25 15:04:19;;;;;;;22.30;8.60;;;;;;;-4.57;68.85;99816.66;126440;1310;108792;-79
2021/12/25 15:07:25;;;;;;;26.20;13.50;;;;;;;-4.66;69.19;99822.60;126371;1312;108909;-80